Time;durP1;ratioP1;P1;durP2;ratioP2;P2;SDS_P1;SDS_P2;PMS_P1;PMS_P2;Temp;Humidity;BMP_temperature;BMP_pressure;BME280_temperature;BME280_humidity;BME280_pressure;Samples;Min_cycle;Max_cycle;Signal;HPM_P1;HPM_P2
2023/12/08 00:01:29;;;;;;;6.90;2.08;;;37.70;49.00;;;;;;5055123;28;20021;-72
2023/12/08 00:03:56;;;;;;;7.22;1.88;;;37.40;49.10;;;;;;5052022;28;20041;-71
2023/12/08 00:06:24;;;;;;;5.75;1.65;;;37.50;49.50;;;;;;5043416;28;20090;-71
2023/12/08 00:08:51;;;;;;;10.05;1.55;;;37.80;49.50;;;;;;5038502;28;20163;-72
2023/12/08 00:11:18;;;;;;;6.55;1.55;;;38.00;49.60;;;;;;5045975;28;20056;-70
2023/12/08 00:13:45;;;;;;;6.57;1.98;;;37.90;49.40;;;;;;5042472;28;20057;-71
2023/12/08 00:16:13;;;;;;;4.45;1.20;;;37.90;47.60;;;;;;5043563;28;20059;-72
2023/12/08 00:18:40;;;;;;;12.20;1.63;;;38.10;47.20;;;;;;5043242;28;20098;-71
2023/12/08 00:21:11;;;;;;;5.25;1.52;;;38.20;46.80;;;;;;5045610;28;20037;-70
2023/12/08 00:23:38;;;;;;;3.78;1.35;;;38.20;47.00;;;;;;5045971;28;20040;-70
2023/12/08 00:26:06;;;;;;;5.90;1.38;;;38.10;47.70;;;;;;5042341;28;20021;-70
2023/12/08 00:28:33;;;;;;;4.22;1.70;;;38.10;46.30;;;;;;5042718;28;20047;-72
2023/12/08 00:31:00;;;;;;;1.75;0.90;;;38.30;47.20;;;;;;5038753;28;20029;-73
2023/12/08 00:33:28;;;;;;;5.55;1.10;;;38.60;45.40;;;;;;5045138;28;20074;-70
2023/12/08 00:35:55;;;;;;;3.58;1.10;;;38.90;44.80;;;;;;5039719;28;20045;-70
2023/12/08 00:38:23;;;;;;;5.72;1.52;;;38.80;42.50;;;;;;5050145;28;20071;-70
2023/12/08 00:40:50;;;;;;;4.25;1.10;;;39.00;42.70;;;;;;5043417;28;20037;-70
2023/12/08 00:43:17;;;;;;;4.50;1.08;;;39.00;43.30;;;;;;5040928;28;20029;-72
2023/12/08 00:45:45;;;;;;;3.88;1.15;;;39.10;42.70;;;;;;5043311;28;20036;-71
2023/12/08 00:48:12;;;;;;;5.53;1.48;;;39.20;42.20;;;;;;5049514;28;20036;-71
2023/12/08 00:50:39;;;;;;;6.75;1.38;;;38.90;42.80;;;;;;5045083;28;20058;-70
2023/12/08 00:53:07;;;;;;;7.38;1.25;;;38.80;44.00;;;;;;5040474;28;20107;-71
2023/12/08 00:55:34;;;;;;;5.65;1.40;;;39.20;43.80;;;;;;5043979;28;20120;-72
2023/12/08 00:58:01;;;;;;;4.05;1.20;;;39.40;42.00;;;;;;5047057;28;20102;-71
2023/12/08 01:00:29;;;;;;;3.78;1.10;;;39.80;41.80;;;;;;5045682;28;20140;-71
2023/12/08 01:02:56;;;;;;;2.53;0.93;;;39.80;39.10;;;;;;5041646;28;20040;-71
2023/12/08 01:05:23;;;;;;;5.22;1.23;;;39.60;39.80;;;;;;5047364;28;20113;-71
2023/12/08 01:07:51;;;;;;;5.78;1.10;;;39.50;41.20;;;;;;5049481;28;20072;-72
2023/12/08 01:10:18;;;;;;;5.43;1.10;;;39.40;40.00;;;;;;5051642;28;20037;-72
2023/12/08 01:12:45;;;;;;;4.35;1.10;;;39.30;39.50;;;;;;5040623;28;20059;-72
2023/12/08 01:15:13;;;;;;;6.63;1.67;;;39.50;40.80;;;;;;5048611;28;20033;-73
2023/12/08 01:17:40;;;;;;;4.45;1.02;;;39.30;40.90;;;;;;5048881;28;20024;-73
2023/12/08 01:20:09;;;;;;;4.03;1.20;;;39.40;39.60;;;;;;5049012;28;20111;-71
2023/12/08 01:22:37;;;;;;;6.55;1.38;;;39.30;40.10;;;;;;5046274;28;20104;-71
2023/12/08 01:25:06;;;;;;;6.80;1.30;;;39.20;40.80;;;;;;5051516;28;20053;-71
2023/12/08 01:27:33;;;;;;;4.65;0.98;;;39.20;41.00;;;;;;5046614;28;20032;-72
2023/12/08 01:30:04;;;;;;;4.32;1.33;;;39.10;41.50;;;;;;5049863;28;20029;-71
2023/12/08 01:32:31;;;;;;;5.53;1.30;;;39.50;41.60;;;;;;5067197;28;20059;-71
2023/12/08 01:34:59;;;;;;;2.88;1.20;;;39.70;41.70;;;;;;5047319;28;20060;-71
2023/12/08 01:37:26;;;;;;;5.38;1.00;;;40.00;41.50;;;;;;5053892;28;20021;-71
2023/12/08 01:39:54;;;;;;;2.75;1.05;;;39.80;42.10;;;;;;5050040;28;20029;-72
2023/12/08 01:42:21;;;;;;;3.70;1.17;;;39.80;42.40;;;;;;5055121;28;20033;-71
2023/12/08 01:44:48;;;;;;;5.85;1.65;;;40.00;41.80;;;;;;5055977;28;20044;-71
2023/12/08 01:47:19;;;;;;;4.38;1.75;;;39.70;42.00;;;;;;5052878;28;20033;-72
2023/12/08 01:49:50;;;;;;;5.47;1.20;;;39.90;42.20;;;;;;5051490;28;20035;-72
2023/12/08 01:52:23;;;;;;;9.40;1.75;;;40.10;42.90;;;;;;5054909;28;20116;-73
2023/12/08 01:54:57;;;;;;;4.85;1.30;;;39.50;42.80;;;;;;5054291;28;20028;-73
2023/12/08 01:57:25;;;;;;;4.40;1.30;;;39.40;43.30;;;;;;5055423;28;20018;-72
2023/12/08 01:59:53;;;;;;;4.10;1.30;;;38.90;43.30;;;;;;5054235;28;20425;-73
2023/12/08 02:02:22;;;;;;;5.35;1.25;;;38.90;43.70;;;;;;5052717;28;20108;-73
2023/12/08 02:04:54;;;;;;;5.63;1.27;;;39.20;43.40;;;;;;5050853;28;20095;-72
2023/12/08 02:07:22;;;;;;;3.25;1.20;;;39.80;42.80;;;;;;5050480;28;20032;-72
2023/12/08 02:09:50;;;;;;;3.50;1.40;;;39.50;42.90;;;;;;5047236;28;20068;-73
2023/12/08 02:12:18;;;;;;;6.03;1.20;;;39.70;42.70;;;;;;5055246;28;20032;-72
2023/12/08 02:14:51;;;;;;;6.07;1.20;;;40.00;42.70;;;;;;5048966;28;20021;-71
2023/12/08 02:17:30;;;;;;;6.78;2.00;;;40.00;43.00;;;;;;5049149;28;20033;-73
2023/12/08 02:20:02;;;;;;;1.75;0.80;;;40.20;42.40;;;;;;5052608;28;20115;-72
2023/12/08 02:22:30;;;;;;;4.55;1.00;;;40.10;42.70;;;;;;5058878;28;20029;-72
2023/12/08 02:24:58;;;;;;;4.13;1.20;;;40.20;43.60;;;;;;5047594;28;20045;-73
2023/12/08 02:27:27;;;;;;;5.25;1.50;;;39.70;42.50;;;;;;5052001;28;20030;-73
2023/12/08 02:29:55;;;;;;;4.88;1.25;;;39.70;42.90;;;;;;5051967;28;20051;-73
2023/12/08 02:32:29;;;;;;;5.57;1.48;;;39.50;42.20;;;;;;5048829;28;20025;-72
2023/12/08 02:35:01;;;;;;;2.95;1.30;;;39.50;42.40;;;;;;5046233;28;20045;-73
2023/12/08 02:37:39;;;;;;;3.78;1.17;;;39.40;43.10;;;;;;5044763;28;22280;-72
2023/12/08 02:40:13;;;;;;;2.13;0.90;;;39.90;43.00;;;;;;5047592;28;20029;-72
2023/12/08 02:42:41;;;;;;;4.38;1.25;;;40.50;42.20;;;;;;5047169;28;20089;-73
2023/12/08 02:45:10;;;;;;;2.75;1.27;;;40.80;41.80;;;;;;5045149;28;20397;-73
2023/12/08 02:47:38;;;;;;;4.75;1.23;;;41.00;41.30;;;;;;5043230;28;20083;-72
2023/12/08 02:50:08;;;;;;;5.60;1.25;;;41.00;41.30;;;;;;5054241;28;20041;-72
2023/12/08 02:52:36;;;;;;;4.28;1.40;;;41.50;41.10;;;;;;5046529;28;20053;-72
2023/12/08 02:55:04;;;;;;;3.92;1.33;;;41.80;40.40;;;;;;5045042;28;20041;-73
2023/12/08 02:57:33;;;;;;;3.47;1.45;;;41.50;40.60;;;;;;5047025;28;20062;-72
2023/12/08 03:00:02;;;;;;;5.55;1.25;;;41.80;40.50;;;;;;5049788;28;20062;-72
2023/12/08 03:02:30;;;;;;;3.25;1.25;;;41.60;40.00;;;;;;5048929;28;20056;-71
2023/12/08 03:04:58;;;;;;;6.07;1.35;;;41.20;40.20;;;;;;5054022;28;20474;-71
2023/12/08 03:07:25;;;;;;;3.78;1.20;;;40.70;40.30;;;;;;5047497;28;20029;-72
2023/12/08 03:09:54;;;;;;;2.65;1.30;;;40.40;41.00;;;;;;5049447;28;20082;-72
2023/12/08 03:12:22;;;;;;;4.40;1.15;;;40.40;41.30;;;;;;5052344;28;20021;-72
2023/12/08 03:14:52;;;;;;;3.58;0.98;;;40.70;40.70;;;;;;5048946;28;20041;-73
2023/12/08 03:17:20;;;;;;;4.45;1.20;;;41.00;40.40;;;;;;5054304;28;20051;-73
2023/12/08 03:19:48;;;;;;;3.17;1.17;;;41.30;40.90;;;;;;5051681;28;20021;-73
2023/12/08 03:22:15;;;;;;;3.72;1.17;;;41.50;40.00;;;;;;5050936;28;20051;-73
2023/12/08 03:24:43;;;;;;;3.45;1.25;;;41.80;40.00;;;;;;5050274;28;20021;-72
2023/12/08 03:27:11;;;;;;;5.65;1.38;;;41.90;39.50;;;;;;5052342;28;20043;-72
2023/12/08 03:29:42;;;;;;;2.92;1.30;;;41.70;39.50;;;;;;5052288;28;20120;-73
2023/12/08 03:32:09;;;;;;;3.72;1.20;;;41.70;39.40;;;;;;5052055;28;20536;-71
2023/12/08 03:34:38;;;;;;;4.00;1.10;;;41.20;39.80;;;;;;5052164;28;20375;-71
2023/12/08 03:37:06;;;;;;;3.50;1.20;;;41.20;40.10;;;;;;5055994;28;20057;-72
2023/12/08 03:39:33;;;;;;;6.82;1.23;;;41.30;39.90;;;;;;5049817;28;20029;-72
2023/12/08 03:42:01;;;;;;;3.55;1.10;;;41.40;39.40;;;;;;5054471;28;20029;-72
2023/12/08 03:44:29;;;;;;;2.45;1.05;;;41.60;39.20;;;;;;5055662;28;20107;-72
2023/12/08 03:46:57;;;;;;;3.30;0.80;;;41.30;38.80;;;;;;5054070;28;20060;-73
2023/12/08 03:49:24;;;;;;;5.32;1.13;;;41.60;39.20;;;;;;5054459;28;20103;-72
2023/12/08 03:51:52;;;;;;;2.92;1.30;;;41.50;38.80;;;;;;5051479;28;20502;-72
2023/12/08 03:54:20;;;;;;;2.00;0.77;;;41.20;39.00;;;;;;5055507;28;20037;-73
2023/12/08 03:56:48;;;;;;;3.60;1.23;;;41.30;39.60;;;;;;5047366;28;20139;-72
2023/12/08 03:59:15;;;;;;;2.72;0.90;;;41.20;39.50;;;;;;5053653;28;20048;-72
2023/12/08 04:01:43;;;;;;;4.40;1.05;;;40.90;38.90;;;;;;5046708;28;20033;-72
2023/12/08 04:04:14;;;;;;;2.78;0.90;;;40.60;38.80;;;;;;5048440;28;20025;-73
2023/12/08 04:06:41;;;;;;;2.03;0.90;;;40.60;39.10;;;;;;5054440;28;20036;-72
2023/12/08 04:09:09;;;;;;;3.92;1.05;;;41.20;39.50;;;;;;5047417;28;20096;-72
2023/12/08 04:11:36;;;;;;;3.58;1.33;;;41.30;39.00;;;;;;5047422;28;20021;-72
2023/12/08 04:14:03;;;;;;;3.60;1.20;;;41.70;40.10;;;;;;5046717;28;20478;-72
2023/12/08 04:16:31;;;;;;;3.95;1.13;;;41.90;39.80;;;;;;5050409;28;20033;-72
2023/12/08 04:18:58;;;;;;;2.92;1.20;;;42.50;39.80;;;;;;5044752;28;20033;-73
2023/12/08 04:21:25;;;;;;;3.80;1.30;;;42.70;39.50;;;;;;5044662;28;20021;-73
2023/12/08 04:23:53;;;;;;;3.03;0.90;;;42.70;39.80;;;;;;5041431;28;20026;-73
2023/12/08 04:26:24;;;;;;;4.15;1.30;;;42.70;39.60;;;;;;5043279;28;20553;-73
2023/12/08 04:28:54;;;;;;;3.70;1.20;;;42.90;38.00;;;;;;5040816;28;20033;-72
2023/12/08 04:31:21;;;;;;;2.20;1.20;;;42.90;38.40;;;;;;5043720;28;20031;-73
2023/12/08 04:33:49;;;;;;;5.35;1.20;;;42.90;38.10;;;;;;5051660;28;20446;-73
2023/12/08 04:36:16;;;;;;;6.10;1.05;;;42.80;38.40;;;;;;5040721;28;20470;-73
2023/12/08 04:38:44;;;;;;;5.75;1.90;;;43.10;39.10;;;;;;5050688;28;20031;-73
2023/12/08 04:41:11;;;;;;;11.32;2.88;;;43.00;40.60;;;;;;5056561;28;20082;-73
2023/12/08 04:43:38;;;;;;;19.00;3.33;;;42.50;44.90;;;;;;5047330;28;20029;-72
2023/12/08 04:46:06;;;;;;;9.13;3.03;;;41.90;44.90;;;;;;5050225;28;20487;-72
2023/12/08 04:48:33;;;;;;;11.80;3.63;;;41.80;45.40;;;;;;5055244;28;20476;-72
2023/12/08 04:51:00;;;;;;;11.48;3.30;;;41.50;44.60;;;;;;5057513;28;20037;-72
2023/12/08 04:53:27;;;;;;;10.85;3.38;;;41.10;45.60;;;;;;5047081;28;20474;-72
2023/12/08 04:55:55;;;;;;;14.63;3.40;;;40.90;47.00;;;;;;5058437;28;20021;-72
2023/12/08 04:58:22;;;;;;;11.18;3.65;;;40.70;48.00;;;;;;5055467;28;20461;-73
2023/12/08 05:00:51;;;;;;;11.05;3.65;;;40.20;48.10;;;;;;5055958;28;20054;-72
2023/12/08 05:03:18;;;;;;;10.52;3.17;;;39.80;49.10;;;;;;5057998;28;20069;-72
2023/12/08 05:05:46;;;;;;;15.73;3.53;;;39.60;49.20;;;;;;5051061;28;20020;-73
2023/12/08 05:08:14;;;;;;;10.88;3.88;;;39.30;49.80;;;;;;5057912;28;20020;-72
2023/12/08 05:10:42;;;;;;;12.20;3.72;;;39.00;50.40;;;;;;5054660;28;20025;-72
2023/12/08 05:13:10;;;;;;;11.98;3.60;;;38.70;50.70;;;;;;5054012;28;20100;-73
2023/12/08 05:15:37;;;;;;;20.77;4.43;;;38.70;50.30;;;;;;5053001;28;20035;-74
2023/12/08 05:18:04;;;;;;;19.40;4.00;;;38.70;50.00;;;;;;5059491;28;20028;-73
2023/12/08 05:20:32;;;;;;;8.77;3.10;;;39.10;49.90;;;;;;5054300;28;20028;-73
2023/12/08 05:22:59;;;;;;;10.55;3.47;;;39.40;49.40;;;;;;5057045;28;20024;-73
2023/12/08 05:25:27;;;;;;;11.93;3.50;;;39.70;49.80;;;;;;5057913;28;20471;-73
2023/12/08 05:27:54;;;;;;;15.85;3.40;;;39.70;49.50;;;;;;5056247;28;20029;-73
2023/12/08 05:30:22;;;;;;;13.82;3.75;;;39.40;49.90;;;;;;5057558;28;20052;-74
2023/12/08 05:32:49;;;;;;;12.75;3.17;;;39.00;51.10;;;;;;5055112;28;20031;-72
2023/12/08 05:35:16;;;;;;;12.90;2.90;;;39.10;50.20;;;;;;5056492;28;20049;-73
2023/12/08 05:37:44;;;;;;;9.65;2.83;;;39.10;48.80;;;;;;5050208;28;20021;-71
2023/12/08 05:40:12;;;;;;;8.15;2.65;;;38.40;49.80;;;;;;5052097;28;20024;-72
2023/12/08 05:42:39;;;;;;;8.73;2.50;;;37.90;50.70;;;;;;5051022;28;20432;-72
2023/12/08 05:45:07;;;;;;;13.35;3.42;;;37.90;51.30;;;;;;5052129;28;20065;-73
2023/12/08 05:47:34;;;;;;;14.38;3.70;;;38.10;52.00;;;;;;5055041;28;20036;-71
2023/12/08 05:50:02;;;;;;;11.20;3.22;;;38.10;52.20;;;;;;5050182;28;20039;-72
2023/12/08 05:52:31;;;;;;;9.15;3.40;;;38.00;51.40;;;;;;5054439;28;20032;-72
2023/12/08 05:54:58;;;;;;;13.15;2.75;;;37.70;51.30;;;;;;5056324;28;20072;-73
2023/12/08 05:57:25;;;;;;;18.67;3.28;;;37.40;50.10;;;;;;5048548;28;20093;-73
2023/12/08 05:59:53;;;;;;;15.30;2.47;;;37.20;50.50;;;;;;5046779;28;20047;-72
2023/12/08 06:02:21;;;;;;;10.98;2.88;;;37.00;50.00;;;;;;5049907;28;20440;-72
2023/12/08 06:04:48;;;;;;;12.75;2.88;;;36.80;50.10;;;;;;5045498;28;20041;-71
2023/12/08 06:07:16;;;;;;;11.02;2.92;;;36.60;50.40;;;;;;5046182;28;20029;-72
2023/12/08 06:09:43;;;;;;;11.52;3.10;;;36.40;51.20;;;;;;5048207;28;20078;-73
2023/12/08 06:12:11;;;;;;;11.70;2.90;;;36.60;51.40;;;;;;5039664;28;20513;-72
2023/12/08 06:14:41;;;;;;;20.65;3.90;;;36.70;51.10;;;;;;5044897;28;20045;-72
2023/12/08 06:17:09;;;;;;;14.40;3.25;;;36.90;51.60;;;;;;5041245;28;20025;-73
2023/12/08 06:19:36;;;;;;;22.40;3.75;;;36.90;51.70;;;;;;5046426;28;20029;-73
2023/12/08 06:22:04;;;;;;;15.40;3.33;;;36.80;52.30;;;;;;5044068;28;20461;-73
2023/12/08 06:24:31;;;;;;;14.65;3.20;;;36.70;52.90;;;;;;5045509;28;20124;-72
2023/12/08 06:26:58;;;;;;;17.33;3.78;;;36.50;53.50;;;;;;5041520;28;20072;-72
2023/12/08 06:29:26;;;;;;;16.48;3.60;;;36.40;54.40;;;;;;5043070;28;20058;-72
2023/12/08 06:31:53;;;;;;;17.00;3.45;;;36.10;54.20;;;;;;5044412;28;20032;-71
2023/12/08 06:34:21;;;;;;;19.75;4.05;;;35.90;55.20;;;;;;5047357;28;20041;-73
2023/12/08 06:36:48;;;;;;;21.90;3.80;;;35.70;55.10;;;;;;5042567;28;20024;-72
2023/12/08 06:39:16;;;;;;;14.93;3.60;;;35.50;55.60;;;;;;5046959;28;20263;-73
2023/12/08 06:41:43;;;;;;;16.20;4.03;;;35.60;55.40;;;;;;5051717;28;20540;-73
2023/12/08 06:44:11;;;;;;;9.68;2.70;;;35.50;55.60;;;;;;5049855;28;20030;-73
2023/12/08 06:46:38;;;;;;;9.25;3.22;;;35.10;56.30;;;;;;5051366;28;20111;-72
2023/12/08 06:49:06;;;;;;;8.80;2.92;;;35.00;56.70;;;;;;5049946;28;20383;-71
2023/12/08 06:51:36;;;;;;;9.95;3.42;;;35.00;56.60;;;;;;5049351;28;20032;-70
2023/12/08 06:54:05;;;;;;;12.00;3.25;;;35.00;56.40;;;;;;5049602;28;20086;-70
2023/12/08 06:56:32;;;;;;;16.30;3.70;;;34.90;56.90;;;;;;5052452;28;20028;-71
2023/12/08 06:59:00;;;;;;;14.50;3.38;;;34.70;57.20;;;;;;5048647;28;20040;-72
2023/12/08 07:01:27;;;;;;;9.60;2.97;;;34.60;57.90;;;;;;5053678;28;20044;-72
2023/12/08 07:03:54;;;;;;;13.55;3.60;;;34.60;57.90;;;;;;5048709;28;20066;-72
2023/12/08 07:06:22;;;;;;;16.00;3.80;;;34.60;57.70;;;;;;5053601;28;20029;-72
2023/12/08 07:08:50;;;;;;;16.15;3.42;;;34.60;57.80;;;;;;5055783;28;20032;-72
2023/12/08 07:11:17;;;;;;;14.60;3.55;;;34.50;58.00;;;;;;5055842;28;20038;-73
2023/12/08 07:13:45;;;;;;;20.25;4.10;;;34.50;59.00;;;;;;5053421;28;20053;-73
2023/12/08 07:16:12;;;;;;;15.25;3.20;;;34.50;57.80;;;;;;5053152;28;20405;-72
2023/12/08 07:18:40;;;;;;;14.57;3.90;;;34.40;58.10;;;;;;5052061;28;20029;-72
2023/12/08 07:21:07;;;;;;;24.42;3.28;;;34.40;58.40;;;;;;5051515;28;20115;-72
2023/12/08 07:23:35;;;;;;;10.30;3.33;;;34.50;58.60;;;;;;5053087;28;20123;-71
2023/12/08 07:26:04;;;;;;;9.65;2.47;;;34.60;58.50;;;;;;5051304;28;20124;-71
2023/12/08 07:28:32;;;;;;;11.20;2.80;;;34.70;57.70;;;;;;5051521;28;20112;-70
2023/12/08 07:30:59;;;;;;;9.85;2.92;;;34.50;58.00;;;;;;5051467;28;20051;-71
2023/12/08 07:33:26;;;;;;;9.02;3.13;;;34.30;59.00;;;;;;5052220;28;20036;-70
2023/12/08 07:35:53;;;;;;;14.07;3.80;;;34.10;58.90;;;;;;5048312;28;20032;-70
2023/12/08 07:38:21;;;;;;;12.05;3.28;;;34.10;59.50;;;;;;5055097;28;20029;-70
2023/12/08 07:40:48;;;;;;;10.80;3.50;;;34.00;59.90;;;;;;5053259;28;20025;-71
2023/12/08 07:43:16;;;;;;;9.73;2.90;;;33.90;60.10;;;;;;5046506;28;20052;-69
2023/12/08 07:45:43;;;;;;;17.35;3.20;;;33.70;60.30;;;;;;5053490;28;21752;-69
2023/12/08 07:48:10;;;;;;;8.82;3.08;;;33.20;61.20;;;;;;5047479;28;20035;-69
2023/12/08 07:50:38;;;;;;;12.25;3.50;;;33.20;61.50;;;;;;5046163;28;20037;-70
2023/12/08 07:53:05;;;;;;;13.07;3.63;;;33.10;61.40;;;;;;5056583;28;20025;-70
2023/12/08 07:55:32;;;;;;;13.85;3.95;;;33.00;61.00;;;;;;5044174;28;20485;-70
2023/12/08 07:58:00;;;;;;;13.68;3.47;;;33.00;61.10;;;;;;5049485;28;20030;-70
2023/12/08 08:00:27;;;;;;;9.57;2.70;;;32.90;61.20;;;;;;5037795;28;20105;-69
2023/12/08 08:02:55;;;;;;;13.07;3.20;;;33.00;61.10;;;;;;5039165;28;20116;-69
2023/12/08 08:05:24;;;;;;;12.38;3.15;;;32.90;61.20;;;;;;5047514;28;20025;-70
2023/12/08 08:07:51;;;;;;;9.63;3.25;;;32.70;61.60;;;;;;5049095;28;20025;-69
2023/12/08 08:10:18;;;;;;;11.30;2.78;;;32.60;62.20;;;;;;5049609;28;20060;-70
2023/12/08 08:12:46;;;;;;;10.68;2.92;;;32.80;61.80;;;;;;5050467;28;20029;-70
2023/12/08 08:15:13;;;;;;;9.50;2.58;;;32.60;61.60;;;;;;5043518;28;20037;-71
2023/12/08 08:17:41;;;;;;;7.68;2.47;;;32.50;61.40;;;;;;5049317;28;20029;-70
2023/12/08 08:20:09;;;;;;;11.15;2.85;;;32.50;60.50;;;;;;5051657;28;20047;-69
2023/12/08 08:22:36;;;;;;;10.68;2.70;;;32.40;60.90;;;;;;5053750;28;20383;-70
2023/12/08 08:25:04;;;;;;;9.73;2.35;;;32.50;60.60;;;;;;5054531;28;20028;-71
2023/12/08 08:27:33;;;;;;;12.73;2.40;;;32.40;59.80;;;;;;5051960;28;20100;-70
2023/12/08 08:30:00;;;;;;;10.48;2.63;;;32.50;59.10;;;;;;5051887;28;20127;-70
2023/12/08 08:32:28;;;;;;;10.30;2.85;;;32.40;59.30;;;;;;5053940;28;20025;-71
2023/12/08 08:34:56;;;;;;;11.85;3.03;;;32.30;59.80;;;;;;5058849;28;20080;-70
2023/12/08 08:37:23;;;;;;;14.70;2.63;;;32.20;59.10;;;;;;5050997;28;20025;-71
2023/12/08 08:39:51;;;;;;;9.68;2.35;;;32.20;58.70;;;;;;5055828;28;20475;-71
2023/12/08 08:42:18;;;;;;;8.25;2.33;;;32.00;59.20;;;;;;5059331;28;20063;-71
2023/12/08 08:44:46;;;;;;;9.93;2.67;;;31.90;59.80;;;;;;5055826;28;20078;-71
2023/12/08 08:47:13;;;;;;;6.38;2.35;;;31.80;58.80;;;;;;5060363;28;20060;-71
2023/12/08 08:49:40;;;;;;;11.30;2.88;;;31.80;59.00;;;;;;5059422;28;20052;-72
2023/12/08 08:52:08;;;;;;;10.57;2.85;;;31.90;58.80;;;;;;5058819;28;20064;-71
2023/12/08 08:54:35;;;;;;;18.00;2.65;;;31.70;58.00;;;;;;5058087;28;20081;-71
2023/12/08 08:57:04;;;;;;;10.63;2.78;;;31.80;58.10;;;;;;5054507;28;20031;-70
2023/12/08 08:59:32;;;;;;;7.18;2.08;;;31.70;58.10;;;;;;5057877;28;20068;-70
2023/12/08 09:01:59;;;;;;;9.63;2.47;;;31.50;58.30;;;;;;5059315;28;20513;-69
2023/12/08 09:04:26;;;;;;;8.65;2.70;;;31.50;58.70;;;;;;5051103;28;20025;-71
2023/12/08 09:06:56;;;;;;;10.70;2.72;;;31.40;59.10;;;;;;5047382;28;20021;-71
2023/12/08 09:09:23;;;;;;;13.57;3.15;;;31.30;59.50;;;;;;5056164;28;20014;-71
2023/12/08 09:11:51;;;;;;;9.48;2.42;;;31.20;60.10;;;;;;5052156;28;20021;-71
2023/12/08 09:14:18;;;;;;;10.30;2.70;;;31.10;60.60;;;;;;5051588;28;20080;-71
2023/12/08 09:16:49;;;;;;;8.88;2.65;;;31.10;60.90;;;;;;5047891;28;20021;-71
2023/12/08 09:19:16;;;;;;;9.23;2.75;;;31.10;60.70;;;;;;5057275;28;20047;-71
2023/12/08 09:21:43;;;;;;;8.82;2.30;;;31.00;61.00;;;;;;5058561;28;20033;-70
2023/12/08 09:24:11;;;;;;;9.98;2.20;;;31.00;61.70;;;;;;5051508;28;20486;-71
2023/12/08 09:26:39;;;;;;;8.65;2.55;;;30.90;61.50;;;;;;5048021;28;20024;-71
2023/12/08 09:29:06;;;;;;;11.50;2.60;;;30.90;62.10;;;;;;5054317;28;20016;-71
2023/12/08 09:31:33;;;;;;;11.35;2.63;;;30.90;62.40;;;;;;5059898;28;20033;-71
2023/12/08 09:34:01;;;;;;;9.82;2.28;;;30.80;62.10;;;;;;5047751;28;20577;-71
2023/12/08 09:36:28;;;;;;;8.52;2.30;;;30.80;62.10;;;;;;5050455;28;20044;-71
2023/12/08 09:38:56;;;;;;;7.95;2.33;;;30.80;63.50;;;;;;5056128;28;20036;-71
2023/12/08 09:41:24;;;;;;;11.35;2.90;;;30.60;64.60;;;;;;5047117;28;20029;-71
2023/12/08 09:44:09;;;;;;;11.60;2.83;;;30.50;65.90;;;;;;5044637;28;20060;-71
2023/12/08 09:46:37;;;;;;;13.13;2.53;;;30.30;65.10;;;;;;5041077;28;20031;-70
2023/12/08 09:49:07;;;;;;;12.35;2.63;;;30.30;66.10;;;;;;5040673;28;20017;-69
2023/12/08 09:51:35;;;;;;;10.75;3.25;;;30.40;65.80;;;;;;5050158;28;20021;-70
2023/12/08 09:54:03;;;;;;;7.82;2.50;;;30.20;66.40;;;;;;5043573;28;20097;-70
2023/12/08 09:56:31;;;;;;;8.00;2.70;;;30.30;66.50;;;;;;5052643;28;20470;-69
2023/12/08 09:58:59;;;;;;;11.35;2.97;;;30.30;65.80;;;;;;5045047;28;20072;-69
2023/12/08 10:01:27;;;;;;;11.98;2.70;;;30.30;66.50;;;;;;5059864;28;20035;-70
2023/12/08 10:03:54;;;;;;;8.18;2.35;;;30.40;66.50;;;;;;5049286;28;20162;-69
2023/12/08 10:06:23;;;;;;;8.35;2.55;;;30.50;66.30;;;;;;5050171;28;20028;-69
2023/12/08 10:08:50;;;;;;;12.45;2.50;;;30.50;66.20;;;;;;5052535;28;20032;-69
2023/12/08 10:11:17;;;;;;;11.07;2.90;;;30.60;66.00;;;;;;5048857;28;20107;-70
2023/12/08 10:13:45;;;;;;;18.02;3.58;;;30.70;65.60;;;;;;5056002;28;20028;-69
2023/12/08 10:16:13;;;;;;;11.95;2.78;;;30.80;65.50;;;;;;5053935;28;20024;-70
2023/12/08 10:18:40;;;;;;;15.05;3.30;;;30.60;65.10;;;;;;5056564;28;20044;-70
2023/12/08 10:21:19;;;;;;;12.13;3.90;;;30.30;66.10;;;;;;5050726;28;20024;-69
2023/12/08 10:23:47;;;;;;;11.40;3.17;;;30.00;67.00;;;;;;5056793;28;20103;-69
2023/12/08 10:26:16;;;;;;;14.13;3.47;;;29.90;67.20;;;;;;5054645;28;20044;-69
2023/12/08 10:28:43;;;;;;;8.88;3.10;;;30.10;67.40;;;;;;5053674;28;20031;-70
2023/12/08 10:31:11;;;;;;;12.02;3.83;;;30.40;66.80;;;;;;5044635;28;20017;-69
2023/12/08 10:33:41;;;;;;;15.65;3.83;;;30.30;66.60;;;;;;5051949;28;20045;-70
2023/12/08 10:36:08;;;;;;;13.43;4.70;;;30.40;66.40;;;;;;5054681;28;20163;-69
2023/12/08 10:38:36;;;;;;;12.80;4.85;;;30.40;66.00;;;;;;5044573;28;20009;-69
2023/12/08 10:41:04;;;;;;;9.30;3.25;;;30.30;66.30;;;;;;5046556;28;20018;-68
2023/12/08 10:43:32;;;;;;;10.30;3.20;;;30.40;66.40;;;;;;5047616;28;20024;-69
2023/12/08 10:46:00;;;;;;;7.47;2.60;;;30.40;66.40;;;;;;5045616;28;20095;-69
2023/12/08 10:48:28;;;;;;;8.77;2.28;;;30.40;66.80;;;;;;5048524;28;20043;-69
2023/12/08 10:50:56;;;;;;;10.32;2.78;;;30.50;66.30;;;;;;5050441;28;20017;-69
2023/12/08 10:53:24;;;;;;;11.25;3.45;;;30.20;67.00;;;;;;5048849;28;20024;-69
2023/12/08 10:56:04;;;;;;;11.05;2.63;;;30.10;67.00;;;;;;5046377;28;20138;-69
2023/12/08 10:58:36;;;;;;;8.45;2.83;;;30.20;67.50;;;;;;5052156;28;20052;-69
2023/12/08 11:01:12;;;;;;;7.35;2.28;;;30.00;67.70;;;;;;5042171;28;20128;-70
2023/12/08 11:03:42;;;;;;;10.27;3.17;;;29.90;67.70;;;;;;5053377;28;20021;-69
2023/12/08 11:06:28;;;;;;;10.55;2.58;;;29.80;68.20;;;;;;5053942;28;20020;-69
2023/12/08 11:08:58;;;;;;;14.35;2.72;;;29.70;67.90;;;;;;5050436;28;20060;-69
2023/12/08 11:11:27;;;;;;;13.45;3.40;;;29.60;68.40;;;;;;5057288;28;20024;-71
2023/12/08 11:14:21;;;;;;;13.45;3.47;;;29.40;68.30;;;;;;5055156;28;20036;-71
2023/12/08 11:17:01;;;;;;;10.70;3.00;;;29.30;68.00;;;;;;5045896;28;20024;-70
2023/12/08 11:19:31;;;;;;;10.80;2.97;;;29.20;68.10;;;;;;5043138;28;20064;-71
2023/12/08 11:22:00;;;;;;;12.10;3.22;;;29.20;68.90;;;;;;5043271;28;20025;-71
2023/12/08 11:24:29;;;;;;;11.05;3.15;;;29.20;69.70;;;;;;5041197;28;20025;-70
2023/12/08 11:27:58;;;;;;;11.45;3.22;;;29.10;69.40;;;;;;5043821;28;20028;-70
2023/12/08 11:30:51;;;;;;;11.23;2.83;;;28.90;69.30;;;;;;4994094;28;20370;-72
2023/12/08 11:33:43;;;;;;;14.38;3.00;;;28.80;70.40;;;;;;5028862;28;20536;-72
2023/12/08 11:36:11;;;;;;;29.38;3.80;;;28.70;71.00;;;;;;5044645;28;20083;-71
2023/12/08 11:38:39;;;;;;;16.40;3.80;;;28.70;71.50;;;;;;5060374;28;20542;-71
2023/12/08 11:41:18;;;;;;;20.90;4.10;;;28.70;71.30;;;;;;5057974;28;20116;-72
2023/12/08 11:43:46;;;;;;;12.30;3.13;;;28.60;70.90;;;;;;5053569;28;20025;-72
2023/12/08 11:46:15;;;;;;;18.65;3.25;;;28.70;71.50;;;;;;5050929;28;20356;-71
2023/12/08 11:48:43;;;;;;;14.13;3.10;;;28.70;71.50;;;;;;5052203;28;20013;-72
2023/12/08 11:51:12;;;;;;;16.83;2.70;;;28.60;71.20;;;;;;5050687;28;20059;-70
2023/12/08 11:53:55;;;;;;;19.30;3.47;;;28.50;70.60;;;;;;5051846;28;20446;-72
2023/12/08 11:56:45;;;;;;;15.38;3.22;;;28.60;70.40;;;;;;5048098;28;20060;-71
2023/12/08 11:59:30;;;;;;;14.80;3.47;;;28.70;70.50;;;;;;5049953;28;20350;-71
2023/12/08 12:01:58;;;;;;;16.60;3.17;;;28.60;70.90;;;;;;5053214;28;20024;-70
2023/12/08 12:04:27;;;;;;;12.43;3.30;;;28.60;71.20;;;;;;5055556;28;20024;-71
2023/12/08 12:06:54;;;;;;;12.55;3.03;;;28.50;70.90;;;;;;5051501;28;20021;-71
2023/12/08 12:09:22;;;;;;;10.73;3.08;;;28.40;71.20;;;;;;5055356;28;20057;-71
2023/12/08 12:11:54;;;;;;;12.07;2.78;;;28.40;71.70;;;;;;5064109;28;20028;-71
2023/12/08 12:14:24;;;;;;;11.05;2.92;;;28.30;71.60;;;;;;5054955;28;20060;-71
2023/12/08 12:16:53;;;;;;;13.55;3.80;;;28.30;71.90;;;;;;5054848;28;20037;-72
2023/12/08 12:19:20;;;;;;;10.48;2.65;;;28.20;72.40;;;;;;5049668;28;20021;-71
2023/12/08 12:21:47;;;;;;;10.10;2.67;;;28.10;72.50;;;;;;5048090;28;20025;-70
2023/12/08 12:24:15;;;;;;;11.43;2.53;;;28.10;73.00;;;;;;5047157;28;20377;-71
2023/12/08 12:26:43;;;;;;;11.68;3.03;;;28.00;73.40;;;;;;5051823;28;20017;-71
2023/12/08 12:29:10;;;;;;;11.70;2.63;;;28.00;73.90;;;;;;5055065;28;20374;-71
2023/12/08 12:31:38;;;;;;;10.07;2.80;;;28.00;74.40;;;;;;5049939;28;20037;-72
2023/12/08 12:34:05;;;;;;;12.73;3.75;;;28.00;74.30;;;;;;5050137;28;20469;-72
2023/12/08 12:36:32;;;;;;;9.38;2.78;;;27.90;74.60;;;;;;5047710;28;20044;-71
2023/12/08 12:39:00;;;;;;;14.07;2.67;;;27.90;74.90;;;;;;5042116;28;20418;-69
2023/12/08 12:41:27;;;;;;;14.63;2.78;;;27.80;75.80;;;;;;5046051;28;20086;-71
2023/12/08 12:43:58;;;;;;;16.83;3.30;;;27.90;76.30;;;;;;5054131;28;20091;-70
2023/12/08 12:46:28;;;;;;;9.98;3.25;;;27.80;77.00;;;;;;5045681;28;20366;-70
2023/12/08 12:48:57;;;;;;;12.10;2.90;;;27.70;77.90;;;;;;5044091;28;20158;-71
2023/12/08 12:51:35;;;;;;;10.85;3.05;;;27.60;78.80;;;;;;5056693;28;20359;-71